This is the latest recevied weather packets stored in our database for station/object F4NFR-13. If no packets are shown the sender has not sent any weather packets the latest 1 day(s).
| Time | Temp. | Humidity | Pressure | Rain* | Wind** | Luminosity | Snow |
|---|---|---|---|---|---|---|---|
| 1777999271 | 12.78° C | 62% | 1011.7 hPa | 0 mm | 4.92 m/s, 44° | 191 W/m² | - |
| 1777998969 | 12.78° C | 63% | 1011.7 hPa | 0 mm | 3.58 m/s, 21° | 214 W/m² | - |
| 1777998667 | 12.78° C | 64% | 1011.7 hPa | 0 mm | 4.47 m/s, 72° | 237 W/m² | - |
| 1777998364 | 12.78° C | 62% | 1011.7 hPa | 0 mm | 6.26 m/s, 49° | 259 W/m² | - |
| 1777998062 | 12.78° C | 63% | 1011.7 hPa | 0 mm | 6.26 m/s, 39° | 303 W/m² | - |
| 1777997457 | 12.78° C | 65% | 1011.7 hPa | 0 mm | 4.02 m/s, 97° | 249 W/m² | - |
| 1777997155 | 12.78° C | 66% | 1011.7 hPa | 0 mm | 3.13 m/s, 45° | 255 W/m² | - |
| 1777996853 | 12.78° C | 65% | 1011.7 hPa | 0 mm | 6.71 m/s, 24° | 301 W/m² | - |
| 1777996248 | 12.78° C | 69% | 1011.7 hPa | 0 mm | 4.92 m/s, 351° | 245 W/m² | - |
| 1777995946 | 12.78° C | 68% | 1011.7 hPa | 0 mm | 3.58 m/s, 29° | 252 W/m² | - |
| 1777995644 | 12.78° C | 68% | 1011.7 hPa | 0 mm | 5.36 m/s, 38° | 274 W/m² | - |
| 1777995342 | 12.78° C | 67% | 1011.7 hPa | 0 mm | 4.92 m/s, 99° | 323 W/m² | - |
| 1777995039 | 12.78° C | 67% | 1011.7 hPa | 0 mm | 5.36 m/s, 52° | 256 W/m² | - |
| 1777994737 | 12.78° C | 65% | 1011.7 hPa | 0 mm | 6.26 m/s, 66° | 253 W/m² | - |
| 1777994434 | 12.78° C | 65% | 1011.7 hPa | 0 mm | 6.26 m/s, 0° | 265 W/m² | - |
| 1777994131 | 12.78° C | 64% | 1011.7 hPa | 0 mm | 3.58 m/s, 67° | 257 W/m² | - |
| 1777993829 | 12.78° C | 64% | 1011.7 hPa | 0 mm | 5.81 m/s, 67° | 293 W/m² | - |
| 1777993527 | 12.78° C | 66% | 1011.7 hPa | 0 mm | 5.36 m/s, 41° | 303 W/m² | - |
| 1777993225 | 12.78° C | 65% | 1012 hPa | 0 mm | 6.71 m/s, 31° | 311 W/m² | - |
| 1777992923 | 13.89° C | 66% | 1012 hPa | 0 mm | 2.68 m/s, 98° | 0 W/m² | - |
| 1777992620 | 12.78° C | 64% | 1012 hPa | 0 mm | 5.81 m/s, 36° | 320 W/m² | - |
| 1777992317 | 12.78° C | 63% | 1012 hPa | 0 mm | 4.47 m/s, 11° | 315 W/m² | - |
| 1777992015 | 13.89° C | 64% | 1012 hPa | 0 mm | 3.13 m/s, 44° | 305 W/m² | - |
| 1777991712 | 13.89° C | 63% | 1012 hPa | 0 mm | 4.02 m/s, 61° | 296 W/m² | - |
| 1777991410 | 13.89° C | 61% | 1012 hPa | 0 mm | 3.13 m/s, 32° | 270 W/m² | - |
* Rain latest hour (hover to see other rain measurements)
** Current wind speed in m/s (hover to see current wind gust speed)